Time;durP1;ratioP1;P1;durP2;ratioP2;P2;SDS_P1;SDS_P2;PMS_P1;PMS_P2;Temp;Humidity;BMP_temperature;BMP_pressure;BME280_temperature;BME280_humidity;BME280_pressure;Samples;Min_cycle;Max_cycle;Signal;HPM_P1;HPM_P2
2022/07/19 00:00:16;;;;;;;11.15;7.80;;;;;;;;;;10050852;28;20069;-66
2022/07/19 00:05:13;;;;;;;12.35;7.25;;;;;;;;;;10058659;28;20078;-66
2022/07/19 00:10:10;;;;;;;11.70;7.82;;;;;;;;;;10050202;28;20047;-65
2022/07/19 00:15:08;;;;;;;12.43;7.55;;;;;;;;;;10043864;28;20051;-66
2022/07/19 00:20:05;;;;;;;12.60;8.18;;;;;;;;;;10057196;28;20055;-66
2022/07/19 00:25:01;;;;;;;12.52;7.72;;;;;;;;;;10082158;28;20051;-66
2022/07/19 00:29:58;;;;;;;13.10;8.35;;;;;;;;;;10078378;28;20078;-66
2022/07/19 00:34:54;;;;;;;13.68;7.70;;;;;;;;;;10081650;28;20572;-65
2022/07/19 00:39:50;;;;;;;12.90;8.20;;;;;;;;;;10059582;28;20086;-65
2022/07/19 00:44:46;;;;;;;11.52;7.78;;;;;;;;;;10079116;28;20098;-65
2022/07/19 00:49:43;;;;;;;12.45;7.25;;;;;;;;;;10052701;28;20043;-66
2022/07/19 00:54:39;;;;;;;11.35;6.97;;;;;;;;;;10066511;28;20047;-66
2022/07/19 00:59:36;;;;;;;13.20;7.18;;;;;;;;;;10051978;28;20047;-66
2022/07/19 01:04:33;;;;;;;13.18;8.18;;;;;;;;;;10060025;28;20075;-65
2022/07/19 01:09:29;;;;;;;11.60;7.22;;;;;;;;;;10040269;28;20524;-65
2022/07/19 01:14:25;;;;;;;13.10;8.02;;;;;;;;;;10052161;28;20075;-66
2022/07/19 01:19:23;;;;;;;11.15;6.80;;;;;;;;;;10079604;28;20513;-65
2022/07/19 01:24:19;;;;;;;14.27;8.30;;;;;;;;;;10079189;28;20457;-66
2022/07/19 01:29:16;;;;;;;12.38;7.25;;;;;;;;;;10079763;28;20467;-66
2022/07/19 01:34:12;;;;;;;12.15;7.10;;;;;;;;;;10051548;28;20106;-65
2022/07/19 01:39:09;;;;;;;13.20;7.60;;;;;;;;;;10074657;28;20048;-65
2022/07/19 01:44:05;;;;;;;14.02;7.57;;;;;;;;;;10048610;28;20079;-65
2022/07/19 01:49:01;;;;;;;13.75;7.43;;;;;;;;;;10078022;28;20134;-65
2022/07/19 01:53:58;;;;;;;11.82;6.95;;;;;;;;;;10079206;28;20126;-65
2022/07/19 01:58:54;;;;;;;11.57;7.85;;;;;;;;;;10050490;28;20496;-65
2022/07/19 02:03:50;;;;;;;12.90;8.02;;;;;;;;;;10046056;28;20137;-65
2022/07/19 02:08:46;;;;;;;11.50;6.82;;;;;;;;;;10045120;28;20063;-66
2022/07/19 02:13:43;;;;;;;12.25;7.15;;;;;;;;;;10044734;28;20468;-65
2022/07/19 02:18:39;;;;;;;14.13;6.88;;;;;;;;;;10040432;28;20058;-66
2022/07/19 02:23:36;;;;;;;15.60;7.82;;;;;;;;;;10039164;28;20035;-65
2022/07/19 02:28:32;;;;;;;13.27;7.68;;;;;;;;;;10038208;28;20044;-65
2022/07/19 02:33:28;;;;;;;13.30;6.82;;;;;;;;;;10042156;28;20073;-65
2022/07/19 02:38:24;;;;;;;11.90;6.68;;;;;;;;;;10076555;28;20051;-65
2022/07/19 02:43:21;;;;;;;11.50;7.70;;;;;;;;;;10053004;28;20130;-65
2022/07/19 02:48:17;;;;;;;11.32;6.60;;;;;;;;;;10077071;28;20074;-65
2022/07/19 02:53:13;;;;;;;9.98;6.45;;;;;;;;;;10043841;28;20082;-66
2022/07/19 02:58:10;;;;;;;10.13;5.93;;;;;;;;;;10074766;28;20421;-66
2022/07/19 03:08:21;;;;;;;12.65;7.15;;;;;;;;;;10039261;28;20039;-65
2022/07/19 03:13:17;;;;;;;10.30;6.80;;;;;;;;;;10038785;28;20090;-65
2022/07/19 03:18:13;;;;;;;9.85;6.20;;;;;;;;;;10048525;28;20168;-66
2022/07/19 03:23:10;;;;;;;11.40;6.68;;;;;;;;;;10038602;28;20052;-65
2022/07/19 03:28:06;;;;;;;8.35;5.55;;;;;;;;;;10044537;28;20074;-65
2022/07/19 03:33:02;;;;;;;11.63;6.68;;;;;;;;;;10037750;28;20118;-65
2022/07/19 03:37:58;;;;;;;10.50;6.35;;;;;;;;;;10074768;28;20047;-65
2022/07/19 03:42:55;;;;;;;10.45;6.20;;;;;;;;;;10055488;28;20075;-65
2022/07/19 03:47:51;;;;;;;10.13;6.32;;;;;;;;;;10088254;28;20126;-65
2022/07/19 03:52:47;;;;;;;11.88;6.82;;;;;;;;;;10047016;28;20071;-65
2022/07/19 03:57:43;;;;;;;11.73;6.50;;;;;;;;;;10072890;28;20454;-65
2022/07/19 04:02:40;;;;;;;12.13;6.85;;;;;;;;;;10074393;28;20074;-65
2022/07/19 04:07:36;;;;;;;10.18;6.53;;;;;;;;;;10085601;28;20529;-65
2022/07/19 04:12:33;;;;;;;11.18;6.65;;;;;;;;;;10036371;28;20473;-65
2022/07/19 04:17:29;;;;;;;11.25;7.10;;;;;;;;;;10049334;28;20071;-66
2022/07/19 04:22:26;;;;;;;12.65;6.32;;;;;;;;;;10035895;28;20506;-66
2022/07/19 04:27:22;;;;;;;9.68;5.72;;;;;;;;;;10044818;28;20056;-65
2022/07/19 04:32:18;;;;;;;10.38;5.75;;;;;;;;;;10036124;28;20541;-65
2022/07/19 04:37:16;;;;;;;9.85;5.65;;;;;;;;;;10068920;28;20543;-65
2022/07/19 04:42:12;;;;;;;12.00;6.60;;;;;;;;;;10066112;28;20048;-65
2022/07/19 04:47:09;;;;;;;10.50;6.38;;;;;;;;;;10066927;28;20047;-65
2022/07/19 04:52:05;;;;;;;10.43;6.55;;;;;;;;;;10064679;28;20142;-66
2022/07/19 04:57:02;;;;;;;9.38;5.93;;;;;;;;;;10066453;28;20062;-65
2022/07/19 05:01:58;;;;;;;9.30;5.65;;;;;;;;;;10057978;28;20475;-66
2022/07/19 05:06:56;;;;;;;12.48;6.70;;;;;;;;;;10072442;28;20102;-66
2022/07/19 05:11:53;;;;;;;12.02;7.00;;;;;;;;;;10044253;28;20043;-65
2022/07/19 05:16:50;;;;;;;10.85;6.28;;;;;;;;;;10060993;28;20091;-65
2022/07/19 05:21:46;;;;;;;15.82;7.22;;;;;;;;;;10042249;28;20044;-66
2022/07/19 05:26:43;;;;;;;10.43;6.63;;;;;;;;;;10055021;28;20071;-66
2022/07/19 05:31:39;;;;;;;9.93;6.40;;;;;;;;;;10041311;28;20095;-66
2022/07/19 05:36:36;;;;;;;10.93;6.40;;;;;;;;;;10068247;28;20058;-66
2022/07/19 05:41:33;;;;;;;10.05;5.90;;;;;;;;;;10080064;28;20767;-65
2022/07/19 05:46:29;;;;;;;11.35;6.47;;;;;;;;;;10071602;28;20134;-66
2022/07/19 05:51:25;;;;;;;9.57;5.72;;;;;;;;;;10070033;28;20115;-66
2022/07/19 05:56:21;;;;;;;8.88;5.43;;;;;;;;;;10066604;28;20043;-66
2022/07/19 06:01:18;;;;;;;9.27;5.60;;;;;;;;;;10069316;28;20047;-65
2022/07/19 06:06:15;;;;;;;9.60;5.57;;;;;;;;;;10064862;28;20047;-65
2022/07/19 06:11:12;;;;;;;10.10;5.78;;;;;;;;;;10063879;28;20143;-66
2022/07/19 06:16:11;;;;;;;8.60;5.07;;;;;;;;;;10064208;28;20081;-66
2022/07/19 06:21:08;;;;;;;10.32;5.07;;;;;;;;;;10063921;28;20078;-66
2022/07/19 06:26:05;;;;;;;8.82;5.45;;;;;;;;;;10062736;28;20055;-66
2022/07/19 06:31:01;;;;;;;9.63;4.88;;;;;;;;;;10056156;28;20071;-65
2022/07/19 06:35:58;;;;;;;10.05;5.25;;;;;;;;;;10062029;28;20083;-66
2022/07/19 06:40:54;;;;;;;14.88;10.00;;;;;;;;;;10042880;28;20139;-66
2022/07/19 06:45:50;;;;;;;9.85;4.97;;;;;;;;;;10057219;28;20062;-66
2022/07/19 06:50:47;;;;;;;8.20;3.70;;;;;;;;;;10038033;28;20048;-66
2022/07/19 06:55:43;;;;;;;8.02;4.50;;;;;;;;;;10047214;28;20532;-65
2022/07/19 07:00:40;;;;;;;9.20;3.97;;;;;;;;;;10037946;28;20044;-66
2022/07/19 07:05:36;;;;;;;7.53;4.10;;;;;;;;;;10057403;28;20501;-66
2022/07/19 07:10:33;;;;;;;8.02;5.00;;;;;;;;;;10073867;28;20082;-65
2022/07/19 07:15:29;;;;;;;7.95;4.35;;;;;;;;;;10037874;28;20446;-66
2022/07/19 07:20:25;;;;;;;7.63;4.15;;;;;;;;;;10052310;28;20132;-65
2022/07/19 07:25:22;;;;;;;8.73;4.10;;;;;;;;;;10055102;28;20067;-66
2022/07/19 07:30:18;;;;;;;6.65;3.67;;;;;;;;;;10056391;28;20131;-66
2022/07/19 07:35:14;;;;;;;8.68;3.88;;;;;;;;;;10054188;28;20772;-66
2022/07/19 07:40:11;;;;;;;7.10;4.07;;;;;;;;;;10046390;28;20079;-66
2022/07/19 07:45:09;;;;;;;12.98;5.13;;;;;;;;;;10052666;28;20130;-66
2022/07/19 07:50:06;;;;;;;6.90;3.63;;;;;;;;;;10042550;28;20044;-66
2022/07/19 07:55:03;;;;;;;11.20;3.58;;;;;;;;;;10051190;28;20498;-66
2022/07/19 08:00:19;;;;;;;9.93;3.92;;;;;;;;;;10035568;28;20052;-66
2022/07/19 08:05:20;;;;;;;7.38;3.83;;;;;;;;;;10052496;28;20083;-66
2022/07/19 08:10:16;;;;;;;8.75;4.68;;;;;;;;;;10074633;28;20660;-66
2022/07/19 08:15:12;;;;;;;9.35;4.18;;;;;;;;;;10059619;28;20094;-66
2022/07/19 08:20:09;;;;;;;9.48;3.97;;;;;;;;;;10063783;28;20055;-66
2022/07/19 08:25:06;;;;;;;6.18;3.58;;;;;;;;;;10051634;28;20110;-66
2022/07/19 08:30:03;;;;;;;6.50;3.53;;;;;;;;;;10074481;28;20081;-66
2022/07/19 08:35:05;;;;;;;6.13;3.22;;;;;;;;;;10076533;28;20051;-66
2022/07/19 08:40:03;;;;;;;7.03;3.50;;;;;;;;;;10062402;28;20059;-66
2022/07/19 08:45:01;;;;;;;5.90;2.88;;;;;;;;;;10043575;29;20482;-65
2022/07/19 08:49:58;;;;;;;7.88;3.97;;;;;;;;;;10042503;29;20105;-66
2022/07/19 08:54:55;;;;;;;5.05;2.85;;;;;;;;;;10071368;28;20082;-66
2022/07/19 08:59:52;;;;;;;7.05;3.25;;;;;;;;;;10042109;28;20079;-66
2022/07/19 09:05:10;;;;;;;6.35;3.28;;;;;;;;;;10055556;28;20071;-66
2022/07/19 09:10:20;;;;;;;6.75;3.35;;;;;;;;;;10080118;28;20059;-66
2022/07/19 09:15:16;;;;;;;6.22;3.30;;;;;;;;;;10067815;28;20055;-66
2022/07/19 09:20:25;;;;;;;6.72;3.38;;;;;;;;;;10041509;28;20623;-66
2022/07/19 09:25:32;;;;;;;7.78;3.15;;;;;;;;;;10059417;28;20097;-66
2022/07/19 09:30:32;;;;;;;5.85;2.72;;;;;;;;;;10079927;28;20074;-66
2022/07/19 09:35:38;;;;;;;5.65;3.05;;;;;;;;;;10079750;28;20043;-66
2022/07/19 09:40:35;;;;;;;8.45;3.70;;;;;;;;;;10080286;28;20074;-66
2022/07/19 09:45:32;;;;;;;6.78;3.55;;;;;;;;;;10062749;28;20074;-66
2022/07/19 09:50:29;;;;;;;7.63;3.28;;;;;;;;;;10078624;28;20657;-66
2022/07/19 09:55:27;;;;;;;8.00;3.60;;;;;;;;;;10058558;28;20142;-66
2022/07/19 10:00:24;;;;;;;5.72;2.80;;;;;;;;;;10075746;28;20573;-66
2022/07/19 10:05:21;;;;;;;6.45;2.70;;;;;;;;;;10057735;28;20050;-66
2022/07/19 10:10:18;;;;;;;5.05;2.45;;;;;;;;;;10056138;28;20110;-66
2022/07/19 10:15:16;;;;;;;4.60;2.60;;;;;;;;;;10056035;28;20047;-66
2022/07/19 10:20:15;;;;;;;7.93;2.78;;;;;;;;;;10039144;28;20509;-66
2022/07/19 10:25:12;;;;;;;5.40;2.72;;;;;;;;;;10043073;28;20079;-66
2022/07/19 10:30:11;;;;;;;4.85;2.80;;;;;;;;;;10038530;28;20153;-66
2022/07/19 10:35:14;;;;;;;5.72;2.78;;;;;;;;;;10055670;28;20059;-66
2022/07/19 10:40:11;;;;;;;5.18;1.92;;;;;;;;;;10077412;28;20096;-66
2022/07/19 10:45:08;;;;;;;5.22;1.83;;;;;;;;;;10063963;28;20055;-66
2022/07/19 10:50:14;;;;;;;3.90;2.22;;;;;;;;;;10074899;28;20083;-66
2022/07/19 10:55:18;;;;;;;3.05;1.58;;;;;;;;;;10054778;28;20070;-68
2022/07/19 11:00:23;;;;;;;3.65;1.80;;;;;;;;;;10056983;28;20055;-66
2022/07/19 11:05:20;;;;;;;3.60;1.75;;;;;;;;;;10055423;28;20055;-66
2022/07/19 11:10:22;;;;;;;3.75;2.10;;;;;;;;;;10037071;28;20055;-66
2022/07/19 11:15:19;;;;;;;4.88;1.88;;;;;;;;;;10050907;28;20560;-66
2022/07/19 11:20:21;;;;;;;3.42;1.83;;;;;;;;;;10037221;28;20044;-66
2022/07/19 11:25:22;;;;;;;6.18;2.30;;;;;;;;;;10039673;28;20131;-66
2022/07/19 11:30:20;;;;;;;4.88;2.42;;;;;;;;;;10036641;28;20127;-66
2022/07/19 11:35:17;;;;;;;3.45;1.65;;;;;;;;;;10065541;28;21000;-66
2022/07/19 11:40:13;;;;;;;5.40;2.35;;;;;;;;;;10075929;28;20705;-66
2022/07/19 11:45:09;;;;;;;4.95;2.58;;;;;;;;;;10074989;28;20051;-66
2022/07/19 11:50:06;;;;;;;8.25;2.28;;;;;;;;;;10075180;28;20436;-66
2022/07/19 11:55:04;;;;;;;3.20;1.55;;;;;;;;;;10053004;28;20517;-66
2022/07/19 12:00:01;;;;;;;5.22;2.25;;;;;;;;;;10062367;28;20103;-66
2022/07/19 12:04:57;;;;;;;5.00;2.15;;;;;;;;;;10051172;29;20118;-66
2022/07/19 12:09:53;;;;;;;3.80;1.70;;;;;;;;;;10043385;28;20067;-65
2022/07/19 12:15:04;;;;;;;6.38;1.98;;;;;;;;;;10049582;28;20066;-66
2022/07/19 12:20:01;;;;;;;;;;;;;;;;;;10050796;29;20087;-66
2022/07/19 12:25:11;;;;;;;5.15;2.22;;;;;;;;;;10044804;28;22840;-66
2022/07/19 12:30:17;;;;;;;7.35;1.90;;;;;;;;;;10035024;28;20079;-66
2022/07/19 12:35:14;;;;;;;3.65;1.88;;;;;;;;;;10039503;28;20427;-66
2022/07/19 12:40:21;;;;;;;3.45;1.70;;;;;;;;;;10035301;28;20052;-66
2022/07/19 12:45:18;;;;;;;3.15;1.50;;;;;;;;;;10053463;28;20078;-66
2022/07/19 12:50:19;;;;;;;3.40;1.67;;;;;;;;;;10074239;28;20494;-66
2022/07/19 12:55:15;;;;;;;4.15;2.63;;;;;;;;;;10056706;28;20143;-66
2022/07/19 13:00:16;;;;;;;3.25;1.70;;;;;;;;;;10063621;28;20750;-65
2022/07/19 13:05:12;;;;;;;4.65;2.20;;;;;;;;;;10039668;28;20048;-66
2022/07/19 13:10:09;;;;;;;3.47;1.38;;;;;;;;;;10034368;28;20451;-66
2022/07/19 13:15:05;;;;;;;4.63;1.70;;;;;;;;;;10051185;28;20056;-66
2022/07/19 13:20:02;;;;;;;4.05;1.60;;;;;;;;;;10073834;28;20195;-66
2022/07/19 13:24:59;;;;;;;5.43;2.03;;;;;;;;;;10070106;28;20594;-66
2022/07/19 13:30:15;;;;;;;3.90;1.85;;;;;;;;;;10079805;28;20065;-66
2022/07/19 13:35:12;;;;;;;5.07;2.17;;;;;;;;;;10079436;28;20079;-66
2022/07/19 13:40:08;;;;;;;3.92;1.77;;;;;;;;;;10080118;28;20078;-66
2022/07/19 13:45:05;;;;;;;5.70;2.20;;;;;;;;;;10058349;28;20051;-66
2022/07/19 13:50:01;;;;;;;7.25;1.67;;;;;;;;;;10078721;28;20469;-66
2022/07/19 13:54:57;;;;;;;5.85;2.50;;;;;;;;;;10055504;29;20421;-66
2022/07/19 13:59:54;;;;;;;4.57;1.55;;;;;;;;;;10064787;28;20151;-66
2022/07/19 14:04:51;;;;;;;6.10;1.52;;;;;;;;;;10054059;28;20059;-66
2022/07/19 14:09:47;;;;;;;3.85;1.77;;;;;;;;;;10048240;28;20047;-66
2022/07/19 14:14:43;;;;;;;3.75;1.50;;;;;;;;;;10051167;28;20111;-66
2022/07/19 14:19:40;;;;;;;4.00;2.03;;;;;;;;;;10038891;28;20485;-67
2022/07/19 14:24:36;;;;;;;5.68;2.42;;;;;;;;;;10052086;28;20143;-66
2022/07/19 14:29:32;;;;;;;4.72;2.17;;;;;;;;;;10077468;28;20061;-66
2022/07/19 14:34:29;;;;;;;4.00;1.92;;;;;;;;;;10062506;28;20162;-66
2022/07/19 14:39:33;;;;;;;6.72;2.15;;;;;;;;;;10077460;28;20046;-65
2022/07/19 14:44:30;;;;;;;4.55;1.92;;;;;;;;;;10055255;28;20047;-66
2022/07/19 14:49:26;;;;;;;3.75;1.52;;;;;;;;;;10076407;28;20133;-66
2022/07/19 14:54:22;;;;;;;4.30;1.85;;;;;;;;;;10048871;28;20131;-66
2022/07/19 14:59:21;;;;;;;5.15;1.88;;;;;;;;;;10067092;28;20106;-66
2022/07/19 15:04:17;;;;;;;6.05;2.00;;;;;;;;;;10047431;28;20098;-65
2022/07/19 15:09:14;;;;;;;3.90;1.40;;;;;;;;;;10061217;28;20135;-66
2022/07/19 15:14:12;;;;;;;5.47;1.83;;;;;;;;;;10046344;28;20047;-65
2022/07/19 15:19:08;;;;;;;3.83;1.73;;;;;;;;;;10059213;28;20071;-65
2022/07/19 15:24:04;;;;;;;4.72;2.10;;;;;;;;;;10045391;28;20078;-65
2022/07/19 15:29:01;;;;;;;6.40;1.88;;;;;;;;;;10040735;28;20043;-66
2022/07/19 15:33:57;;;;;;;5.30;2.08;;;;;;;;;;10044386;28;20051;-66
2022/07/19 15:38:53;;;;;;;3.55;1.80;;;;;;;;;;10074988;28;20138;-65
2022/07/19 15:43:51;;;;;;;4.65;1.67;;;;;;;;;;10071435;28;20121;-65
2022/07/19 15:48:47;;;;;;;4.82;1.90;;;;;;;;;;10074940;28;20505;-65
2022/07/19 15:53:44;;;;;;;7.75;4.28;;;;;;;;;;10060671;28;20075;-65
2022/07/19 15:58:40;;;;;;;4.75;2.08;;;;;;;;;;10074907;28;20418;-65
2022/07/19 16:03:37;;;;;;;8.18;2.30;;;;;;;;;;10060244;28;20039;-66
2022/07/19 16:08:33;;;;;;;5.35;2.05;;;;;;;;;;10074306;28;20082;-66
2022/07/19 16:13:29;;;;;;;4.80;2.00;;;;;;;;;;10043433;28;20086;-65
2022/07/19 16:18:26;;;;;;;4.45;2.38;;;;;;;;;;10073645;28;20556;-66
2022/07/19 16:23:22;;;;;;;2.95;1.50;;;;;;;;;;10074414;28;20067;-66
2022/07/19 16:28:18;;;;;;;6.35;1.88;;;;;;;;;;10049244;28;20048;-66
2022/07/19 16:33:15;;;;;;;4.13;1.80;;;;;;;;;;10036803;28;20098;-65
2022/07/19 16:38:11;;;;;;;5.82;1.60;;;;;;;;;;10073690;28;20501;-66
2022/07/19 16:43:07;;;;;;;6.07;3.45;;;;;;;;;;10062708;28;20044;-66
2022/07/19 16:48:05;;;;;;;7.38;2.47;;;;;;;;;;10072459;28;20055;-66
2022/07/19 16:53:01;;;;;;;4.97;2.10;;;;;;;;;;10052551;28;20052;-66
2022/07/19 16:57:58;;;;;;;3.53;1.40;;;;;;;;;;10078088;28;20059;-65
2022/07/19 17:02:54;;;;;;;5.50;1.60;;;;;;;;;;10054255;28;20135;-65
2022/07/19 17:07:50;;;;;;;3.72;1.50;;;;;;;;;;10079047;28;20051;-65
2022/07/19 17:12:47;;;;;;;4.13;1.80;;;;;;;;;;10081131;28;20786;-65
2022/07/19 17:17:44;;;;;;;3.97;1.98;;;;;;;;;;10066605;28;20052;-65
2022/07/19 17:22:40;;;;;;;3.97;1.60;;;;;;;;;;10041808;28;20048;-65
2022/07/19 17:27:36;;;;;;;3.92;1.80;;;;;;;;;;10046979;28;20086;-64
2022/07/19 17:32:33;;;;;;;5.15;1.80;;;;;;;;;;10041167;28;20052;-65
2022/07/19 17:37:29;;;;;;;3.78;1.90;;;;;;;;;;10075551;28;20051;-65
2022/07/19 17:42:25;;;;;;;5.25;1.33;;;;;;;;;;10078813;28;20505;-65
2022/07/19 17:47:30;;;;;;;3.72;1.67;;;;;;;;;;10075484;28;20097;-65
2022/07/19 17:52:27;;;;;;;4.43;2.20;;;;;;;;;;10063531;28;20118;-65
2022/07/19 17:57:23;;;;;;;5.05;1.88;;;;;;;;;;10074234;28;20081;-66
2022/07/19 18:02:19;;;;;;;6.95;2.22;;;;;;;;;;10062754;28;20134;-66
2022/07/19 18:07:36;;;;;;;3.47;1.92;;;;;;;;;;10073769;28;20047;-65
2022/07/19 18:12:32;;;;;;;5.65;2.15;;;;;;;;;;10049502;28;20103;-65
2022/07/19 18:17:28;;;;;;;4.22;2.20;;;;;;;;;;10073923;28;20470;-66
2022/07/19 18:22:25;;;;;;;3.22;1.55;;;;;;;;;;10047262;28;20503;-65
2022/07/19 18:27:22;;;;;;;6.68;2.10;;;;;;;;;;10053952;28;20056;-65
2022/07/19 18:32:18;;;;;;;4.85;1.95;;;;;;;;;;10038998;28;20044;-65
2022/07/19 18:37:15;;;;;;;3.42;1.60;;;;;;;;;;10050744;28;20044;-65
2022/07/19 18:42:12;;;;;;;5.13;1.88;;;;;;;;;;10038742;28;20098;-64
2022/07/19 18:47:10;;;;;;;6.40;2.47;;;;;;;;;;10040165;28;20479;-65
2022/07/19 18:52:07;;;;;;;4.85;2.20;;;;;;;;;;10045944;28;20078;-65
2022/07/19 18:57:04;;;;;;;6.60;2.92;;;;;;;;;;10076097;28;20054;-64
2022/07/19 19:02:01;;;;;;;5.35;3.05;;;;;;;;;;10053772;28;20051;-66
2022/07/19 19:06:57;;;;;;;5.30;3.15;;;;;;;;;;10068253;28;20055;-65
2022/07/19 19:11:54;;;;;;;6.25;2.72;;;;;;;;;;10038698;28;20083;-65
2022/07/19 19:16:50;;;;;;;8.00;3.45;;;;;;;;;;10052569;28;20474;-65
2022/07/19 19:21:47;;;;;;;7.38;3.15;;;;;;;;;;10037084;28;20057;-65
2022/07/19 19:26:43;;;;;;;7.63;3.33;;;;;;;;;;10037649;28;20074;-65
2022/07/19 19:31:39;;;;;;;5.72;3.22;;;;;;;;;;10037077;28;20083;-64
2022/07/19 19:36:36;;;;;;;7.60;3.47;;;;;;;;;;10069727;28;20111;-65
2022/07/19 19:41:32;;;;;;;5.68;2.97;;;;;;;;;;10075984;28;20509;-65
2022/07/19 19:46:28;;;;;;;5.10;3.20;;;;;;;;;;10066363;28;20103;-65
2022/07/19 19:51:25;;;;;;;7.05;3.40;;;;;;;;;;10075583;28;20047;-64
2022/07/19 19:56:22;;;;;;;5.97;2.60;;;;;;;;;;10065677;28;20509;-65
2022/07/19 20:01:18;;;;;;;6.40;3.35;;;;;;;;;;10075217;28;20138;-65
2022/07/19 20:06:15;;;;;;;5.47;3.15;;;;;;;;;;10064101;28;20135;-65
2022/07/19 20:11:11;;;;;;;5.80;3.38;;;;;;;;;;10064987;28;20138;-65
2022/07/19 20:16:07;;;;;;;5.90;3.10;;;;;;;;;;10060198;28;20137;-65
2022/07/19 20:21:06;;;;;;;6.40;2.85;;;;;;;;;;10058820;28;20533;-66
2022/07/19 20:26:05;;;;;;;5.25;3.03;;;;;;;;;;10059792;28;20052;-67
2022/07/19 20:31:01;;;;;;;6.25;3.22;;;;;;;;;;10049421;28;20052;-67
2022/07/19 20:35:58;;;;;;;5.35;3.35;;;;;;;;;;10080968;28;20532;-66
2022/07/19 20:40:55;;;;;;;6.70;3.58;;;;;;;;;;10054016;28;20056;-68
2022/07/19 20:45:51;;;;;;;8.60;3.50;;;;;;;;;;10058201;28;20142;-68
2022/07/19 20:50:48;;;;;;;6.90;3.35;;;;;;;;;;10042721;28;20044;-68
2022/07/19 20:55:45;;;;;;;8.77;3.95;;;;;;;;;;10063727;28;20126;-69
2022/07/19 21:00:41;;;;;;;6.20;3.28;;;;;;;;;;10081460;28;20130;-68
2022/07/19 21:05:39;;;;;;;11.07;3.97;;;;;;;;;;10063627;28;20067;-68
2022/07/19 21:10:35;;;;;;;6.35;3.70;;;;;;;;;;10078324;28;20051;-68
2022/07/19 21:15:32;;;;;;;7.38;4.03;;;;;;;;;;10061637;28;20071;-68
2022/07/19 21:20:28;;;;;;;7.00;4.13;;;;;;;;;;10075714;28;20529;-68
2022/07/19 21:25:24;;;;;;;9.13;4.25;;;;;;;;;;10060269;28;20644;-68
2022/07/19 21:30:21;;;;;;;6.18;3.63;;;;;;;;;;10066156;28;20478;-68
2022/07/19 21:35:17;;;;;;;9.30;3.78;;;;;;;;;;10059045;28;20078;-68
2022/07/19 21:40:14;;;;;;;5.90;3.40;;;;;;;;;;10060268;28;20486;-68
2022/07/19 21:45:10;;;;;;;5.40;3.45;;;;;;;;;;10057811;28;20047;-68
2022/07/19 21:50:07;;;;;;;7.28;4.15;;;;;;;;;;10050667;28;20106;-68
2022/07/19 21:55:04;;;;;;;8.98;4.25;;;;;;;;;;10056165;28;20531;-68
2022/07/19 22:00:02;;;;;;;6.97;4.10;;;;;;;;;;10079729;29;20728;-68
2022/07/19 22:04:59;;;;;;;9.90;4.72;;;;;;;;;;10076747;28;20090;-68
2022/07/19 22:09:55;;;;;;;7.90;3.80;;;;;;;;;;10078956;28;20086;-68
2022/07/19 22:14:55;;;;;;;6.50;3.53;;;;;;;;;;10064556;28;20104;-69
2022/07/19 22:19:52;;;;;;;6.93;3.67;;;;;;;;;;10078511;28;20047;-67
2022/07/19 22:24:48;;;;;;;7.40;4.07;;;;;;;;;;10063050;28;20051;-68
2022/07/19 22:29:44;;;;;;;7.50;3.75;;;;;;;;;;10077854;28;20069;-68
2022/07/19 22:34:40;;;;;;;7.72;3.58;;;;;;;;;;10060701;28;20071;-67
2022/07/19 22:39:39;;;;;;;6.95;4.13;;;;;;;;;;10077383;28;20147;-68
2022/07/19 22:44:35;;;;;;;7.28;3.97;;;;;;;;;;10052878;28;20560;-68
2022/07/19 22:49:32;;;;;;;5.53;3.75;;;;;;;;;;10066059;28;20142;-68
2022/07/19 22:54:28;;;;;;;7.28;3.83;;;;;;;;;;10048719;28;20485;-68
2022/07/19 22:59:24;;;;;;;6.50;3.80;;;;;;;;;;10066501;28;20079;-68
2022/07/19 23:04:20;;;;;;;7.10;3.83;;;;;;;;;;10048261;28;20477;-67
2022/07/19 23:09:17;;;;;;;5.65;3.65;;;;;;;;;;10050997;28;20098;-68
2022/07/19 23:14:13;;;;;;;8.05;3.67;;;;;;;;;;10046926;28;20086;-68
2022/07/19 23:19:09;;;;;;;6.95;3.65;;;;;;;;;;10046572;28;20055;-68
2022/07/19 23:24:06;;;;;;;8.57;4.03;;;;;;;;;;10045160;28;20082;-68
2022/07/19 23:29:03;;;;;;;7.25;3.67;;;;;;;;;;10046586;28;20126;-68
2022/07/19 23:33:59;;;;;;;6.75;4.13;;;;;;;;;;10044595;28;20067;-68
2022/07/19 23:38:55;;;;;;;8.27;4.00;;;;;;;;;;10046567;28;20043;-68
2022/07/19 23:43:52;;;;;;;6.85;3.80;;;;;;;;;;10038810;28;20048;-67
2022/07/19 23:48:48;;;;;;;5.68;3.70;;;;;;;;;;10035668;28;20087;-68
2022/07/19 23:53:45;;;;;;;10.13;4.05;;;;;;;;;;10042501;28;20047;-67
2022/07/19 23:58:42;;;;;;;7.63;4.10;;;;;;;;;;10074626;28;20043;-68
